createdAt,value
2018-05-29T00:02:25.749Z,79.10
2018-05-29T00:04:53.431Z,79.00
2018-05-29T00:07:21.143Z,79.20
2018-05-29T00:09:49.583Z,79.40
2018-05-29T00:12:17.294Z,79.30
2018-05-29T00:14:45.738Z,79.00
2018-05-29T00:17:13.462Z,79.00
2018-05-29T00:19:41.175Z,78.70
2018-05-29T00:22:08.896Z,78.50
2018-05-29T00:24:36.575Z,78.40
2018-05-29T00:27:04.306Z,78.50
2018-05-29T00:29:32.007Z,78.70
2018-05-29T00:31:59.674Z,78.90
2018-05-29T00:34:28.191Z,78.90
2018-05-29T00:36:55.942Z,78.90
2018-05-29T00:39:23.614Z,78.90
2018-05-29T00:41:51.281Z,79.10
2018-05-29T00:44:18.995Z,79.40
2018-05-29T00:46:47.442Z,79.40
2018-05-29T00:49:15.150Z,79.40
2018-05-29T00:51:43.590Z,79.70
2018-05-29T00:54:11.331Z,79.70
2018-05-29T00:56:39.015Z,79.70
2018-05-29T00:59:06.686Z,79.60
2018-05-29T01:01:35.185Z,80.00
2018-05-29T01:04:02.858Z,80.00
2018-05-29T01:06:30.566Z,80.00
2018-05-29T01:08:58.238Z,80.10
2018-05-29T01:11:26.117Z,80.30
2018-05-29T01:13:53.799Z,80.40
2018-05-29T01:16:22.235Z,80.50
2018-05-29T01:18:49.949Z,80.50
2018-05-29T01:21:17.623Z,80.20
2018-05-29T01:23:45.339Z,80.30
2018-05-29T01:26:13.055Z,79.90
2018-05-29T01:28:40.730Z,79.70
2018-05-29T01:31:08.443Z,79.80
2018-05-29T01:33:36.114Z,79.90
2018-05-29T01:36:04.602Z,80.20
2018-05-29T01:38:33.043Z,80.20
2018-05-29T01:41:00.742Z,80.10
2018-05-29T01:43:29.222Z,79.90
2018-05-29T01:45:57.663Z,79.90
2018-05-29T01:48:25.390Z,79.80
2018-05-29T01:50:53.067Z,79.80
2018-05-29T01:53:20.739Z,80.20
2018-05-29T01:55:48.449Z,80.30
2018-05-29T01:58:16.128Z,80.20
2018-05-29T02:00:44.602Z,79.80
2018-05-29T02:03:13.056Z,79.70
2018-05-29T02:05:40.766Z,79.70
2018-05-29T02:08:08.491Z,79.40
2018-05-29T02:10:36.158Z,79.50
2018-05-29T02:13:03.839Z,79.50
2018-05-29T02:15:32.313Z,79.50
2018-05-29T02:18:00.750Z,80.10
2018-05-29T02:20:28.474Z,79.40
2018-05-29T02:22:56.147Z,79.70
2018-05-29T02:25:23.827Z,79.80
2018-05-29T02:27:51.539Z,80.00
2018-05-29T02:30:19.349Z,80.00
2018-05-29T02:32:47.216Z,80.00
2018-05-29T02:35:14.977Z,79.60
2018-05-29T02:37:42.845Z,79.00
2018-05-29T02:40:10.609Z,79.00
2018-05-29T02:42:38.477Z,79.20
2018-05-29T02:45:06.282Z,79.50
2018-05-29T02:47:34.828Z,79.70
2018-05-29T02:50:02.694Z,79.70
2018-05-29T02:52:30.459Z,80.00
2018-05-29T02:54:58.328Z,80.10
2018-05-29T02:57:26.196Z,80.00
2018-05-29T02:59:54.077Z,80.00
2018-05-29T03:02:21.829Z,80.20
2018-05-29T03:04:49.694Z,80.10
2018-05-29T03:07:17.562Z,80.10
2018-05-29T03:09:45.429Z,79.90
2018-05-29T03:12:13.195Z,79.90
2018-05-29T03:14:40.960Z,79.90
2018-05-29T03:17:09.434Z,79.80
2018-05-29T03:19:37.890Z,79.70
2018-05-29T03:22:05.594Z,79.70
2018-05-29T03:24:33.267Z,79.70
2018-05-29T03:27:00.978Z,79.70
2018-05-29T03:29:28.646Z,79.80
2018-05-29T03:31:56.362Z,79.80
2018-05-29T03:34:24.068Z,79.60
2018-05-29T03:36:51.786Z,79.20
2018-05-29T03:39:20.262Z,78.90
2018-05-29T03:41:48.708Z,79.50
2018-05-29T03:44:16.423Z,79.00
2018-05-29T03:46:44.862Z,79.10
2018-05-29T03:49:12.582Z,79.10
2018-05-29T03:51:40.250Z,79.10
2018-05-29T03:54:07.962Z,79.20
2018-05-29T03:56:35.658Z,79.10
2018-05-29T03:59:04.090Z,78.30
2018-05-29T04:01:31.801Z,78.30
2018-05-29T04:03:59.478Z,78.10
2018-05-29T04:06:27.198Z,77.80
2018-05-29T04:08:55.667Z,77.80
2018-05-29T04:11:23.387Z,78.60
2018-05-29T04:13:51.111Z,77.60
2018-05-29T04:16:18.834Z,77.80
2018-05-29T04:18:47.278Z,77.60
2018-05-29T04:21:14.967Z,77.60
2018-05-29T04:23:43.455Z,77.40
2018-05-29T04:26:11.938Z,77.50
2018-05-29T04:28:39.657Z,77.50
2018-05-29T04:31:07.339Z,77.60
2018-05-29T04:33:35.846Z,77.80
2018-05-29T04:36:03.527Z,77.80
2018-05-29T04:38:31.242Z,77.80
2018-05-29T04:40:58.959Z,77.80
2018-05-29T04:43:26.739Z,77.80
2018-05-29T04:45:54.604Z,77.70
2018-05-29T04:48:22.374Z,77.60
2018-05-29T04:50:50.236Z,77.70
2018-05-29T04:53:18.002Z,78.00
2018-05-29T04:55:45.869Z,78.40
2018-05-29T04:58:13.639Z,78.60
2018-05-29T05:00:41.502Z,78.70
2018-05-29T05:03:09.268Z,79.00
2018-05-29T05:05:37.099Z,79.10
2018-05-29T05:08:04.966Z,79.50
2018-05-29T05:10:32.834Z,79.80
2018-05-29T05:13:00.701Z,80.00
2018-05-29T05:15:28.378Z,80.20
2018-05-29T05:17:56.111Z,80.30
2018-05-29T05:20:23.830Z,80.40
2018-05-29T05:22:51.542Z,80.50
2018-05-29T05:25:19.979Z,80.40
2018-05-29T05:27:47.698Z,80.40
2018-05-29T05:30:15.371Z,80.40
2018-05-29T05:32:43.825Z,80.50
2018-05-29T05:35:11.534Z,80.50
2018-05-29T05:37:39.975Z,80.80
2018-05-29T05:40:07.686Z,80.80
2018-05-29T05:42:35.380Z,81.00
2018-05-29T05:45:03.131Z,81.10
2018-05-29T05:47:30.798Z,81.20
2018-05-29T05:49:58.619Z,81.30
2018-05-29T05:52:27.143Z,81.10
2018-05-29T05:54:54.866Z,81.00
2018-05-29T05:57:22.542Z,81.10
2018-05-29T05:59:50.223Z,81.20
2018-05-29T06:02:17.930Z,81.60
2018-05-29T06:04:46.362Z,81.90
2018-05-29T06:07:14.050Z,81.80
2018-05-29T06:09:41.771Z,81.90
2018-05-29T06:12:09.448Z,82.10
2018-05-29T06:14:37.363Z,83.10
2018-05-29T06:17:05.906Z,82.60
2018-05-29T06:19:33.580Z,82.50
2018-05-29T06:22:01.300Z,82.70
2018-05-29T06:24:28.975Z,82.90
2018-05-29T06:26:56.712Z,83.00
2018-05-29T06:29:25.191Z,83.00
2018-05-29T06:31:53.631Z,82.60
2018-05-29T06:34:21.351Z,82.60
2018-05-29T06:36:49.067Z,82.60
2018-05-29T06:39:16.772Z,82.50
2018-05-29T06:41:44.483Z,82.10
2018-05-29T06:44:12.151Z,81.70
2018-05-29T06:46:39.826Z,81.70
2018-05-29T06:49:07.535Z,81.80
2018-05-29T06:51:35.211Z,81.00
2018-05-29T06:54:02.957Z,80.60
2018-05-29T06:56:30.635Z,80.50
2018-05-29T06:58:58.306Z,79.40
2018-05-29T07:01:26.047Z,78.30
2018-05-29T07:03:53.778Z,76.80
2018-05-29T07:06:21.476Z,76.80
2018-05-29T07:08:49.194Z,78.20
2018-05-29T07:11:16.978Z,78.50
2018-05-29T07:13:45.415Z,79.60
2018-05-29T07:16:13.149Z,79.60
2018-05-29T07:18:40.819Z,80.50
2018-05-29T07:21:08.490Z,79.40
2018-05-29T07:23:36.235Z,79.10
2018-05-29T07:26:03.917Z,79.80
2018-05-29T07:28:32.350Z,81.20
2018-05-29T07:31:00.052Z,81.20
2018-05-29T07:33:27.727Z,81.50
2018-05-29T07:35:55.446Z,81.30
2018-05-29T07:38:23.887Z,79.90
2018-05-29T07:40:51.567Z,79.80
2018-05-29T07:43:20.039Z,77.10
2018-05-29T07:45:47.718Z,77.10
2018-05-29T07:48:15.423Z,76.00
2018-05-29T07:50:43.098Z,76.70
2018-05-29T07:53:10.786Z,76.70
2018-05-29T07:55:38.521Z,75.90
2018-05-29T07:58:06.211Z,75.70
2018-05-29T08:00:33.889Z,76.80
2018-05-29T08:03:01.599Z,77.30
2018-05-29T08:05:29.282Z,76.60
2018-05-29T08:07:57.021Z,75.80
2018-05-29T08:10:24.727Z,76.80
2018-05-29T08:12:53.194Z,76.20
2018-05-29T08:15:20.874Z,76.20
2018-05-29T08:17:48.578Z,76.10
2018-05-29T08:20:16.247Z,77.30
2018-05-29T08:22:43.955Z,77.80
2018-05-29T08:25:11.679Z,76.70
2018-05-29T08:27:39.410Z,77.10
2018-05-29T08:30:07.080Z,77.10
2018-05-29T08:32:34.749Z,77.80
2018-05-29T08:35:02.452Z,77.50
2018-05-29T08:37:30.899Z,79.10
2018-05-29T08:39:58.651Z,79.10
2018-05-29T08:42:26.322Z,79.20
2018-05-29T08:44:53.999Z,79.30
2018-05-29T08:47:21.735Z,78.50
2018-05-29T08:49:49.407Z,78.20
2018-05-29T08:52:17.091Z,77.40
2018-05-29T08:54:44.810Z,75.70
2018-05-29T08:57:12.495Z,76.10
2018-05-29T08:59:40.194Z,76.30
2018-05-29T09:02:07.895Z,76.90
2018-05-29T09:04:35.563Z,77.30
2018-05-29T09:07:03.320Z,77.60
2018-05-29T09:09:31.014Z,77.50
2018-05-29T09:11:58.719Z,78.50
2018-05-29T09:14:26.426Z,79.50
2018-05-29T09:16:54.099Z,79.00
2018-05-29T09:19:21.776Z,77.60
2018-05-29T09:21:49.511Z,76.50
2018-05-29T09:24:17.190Z,76.30
2018-05-29T09:26:44.871Z,77.50
2018-05-29T09:29:12.621Z,77.80
2018-05-29T09:31:40.343Z,78.10
2018-05-29T09:34:08.807Z,77.10
2018-05-29T09:36:36.551Z,77.10
2018-05-29T09:39:04.306Z,77.80
2018-05-29T09:41:32.020Z,79.10
2018-05-29T09:43:59.754Z,80.00
2018-05-29T09:46:27.434Z,80.90
2018-05-29T09:48:55.927Z,82.10
2018-05-29T09:51:24.362Z,82.50
2018-05-29T09:53:52.034Z,82.50
2018-05-29T09:56:19.751Z,82.80
2018-05-29T09:58:47.432Z,83.10
2018-05-29T10:01:15.124Z,83.30
2018-05-29T10:03:42.891Z,83.50
2018-05-29T10:06:10.566Z,83.40
2018-05-29T10:08:38.266Z,82.80
2018-05-29T10:11:06.001Z,82.90
2018-05-29T10:13:33.686Z,83.10
2018-05-29T10:16:01.371Z,83.30
2018-05-29T10:18:29.100Z,83.50
2018-05-29T10:20:56.782Z,83.70
2018-05-29T10:23:24.501Z,83.10
2018-05-29T10:25:52.221Z,82.40
2018-05-29T10:28:19.952Z,82.70
2018-05-29T10:30:47.630Z,82.90
2018-05-29T10:33:15.307Z,82.80
2018-05-29T10:35:43.040Z,83.00
2018-05-29T10:38:10.907Z,82.90
2018-05-29T10:40:38.685Z,82.80
2018-05-29T10:43:06.553Z,83.80
2018-05-29T10:45:34.318Z,83.40
2018-05-29T10:48:02.162Z,83.70
2018-05-29T10:50:30.044Z,83.90
2018-05-29T10:52:57.952Z,84.10
2018-05-29T10:55:25.842Z,83.00
2018-05-29T10:57:54.572Z,82.70
2018-05-29T11:00:22.374Z,82.70
2018-05-29T11:02:50.260Z,82.80
2018-05-29T11:05:18.099Z,82.80
2018-05-29T11:07:45.822Z,82.50
2018-05-29T11:10:13.496Z,82.40
2018-05-29T11:12:41.161Z,82.40
2018-05-29T11:15:08.871Z,82.30
2018-05-29T11:17:36.594Z,82.00
2018-05-29T11:20:04.316Z,81.50
2018-05-29T11:22:32.008Z,81.70
2018-05-29T11:24:59.745Z,81.70
2018-05-29T11:27:27.423Z,82.20
2018-05-29T11:29:55.862Z,83.00
2018-05-29T11:32:23.574Z,83.00
2018-05-29T11:34:51.287Z,83.30
2018-05-29T11:37:19.044Z,83.70
2018-05-29T11:39:46.723Z,83.90
2018-05-29T11:42:14.434Z,84.00
2018-05-29T11:44:42.108Z,83.60
2018-05-29T11:47:09.787Z,83.50
2018-05-29T11:49:37.513Z,83.70
2018-05-29T11:52:05.191Z,84.10
2018-05-29T11:54:32.877Z,84.30
2018-05-29T11:57:00.604Z,84.10
2018-05-29T11:59:28.314Z,83.40
2018-05-29T12:01:55.991Z,82.90
2018-05-29T12:04:23.706Z,82.80
2018-05-29T12:06:51.445Z,83.30
2018-05-29T12:09:19.895Z,84.50
2018-05-29T12:11:47.629Z,84.40
2018-05-29T12:14:15.328Z,84.10
2018-05-29T12:16:43.075Z,83.20
2018-05-29T12:19:10.752Z,83.00
2018-05-29T12:21:38.467Z,83.10
2018-05-29T12:24:06.134Z,83.40
2018-05-29T12:26:33.843Z,82.70
2018-05-29T12:29:01.576Z,83.20
2018-05-29T12:31:29.251Z,83.80
2018-05-29T12:33:56.918Z,84.50
2018-05-29T12:36:24.631Z,85.00
2018-05-29T12:38:52.354Z,85.30
2018-05-29T12:41:20.039Z,85.70
2018-05-29T12:43:48.475Z,83.20
2018-05-29T12:46:16.271Z,83.30
2018-05-29T12:48:43.918Z,81.40
2018-05-29T12:51:11.591Z,82.00
2018-05-29T12:53:39.331Z,82.00
2018-05-29T12:56:07.002Z,82.30
2018-05-29T12:58:34.744Z,81.40
2018-05-29T13:01:02.423Z,80.60
2018-05-29T13:03:30.094Z,76.60
2018-05-29T13:05:57.823Z,76.80
2018-05-29T13:08:25.499Z,78.60
2018-05-29T13:10:53.174Z,78.40
2018-05-29T13:13:20.906Z,76.40
2018-05-29T13:15:48.611Z,73.90
2018-05-29T13:18:16.334Z,73.60
2018-05-29T13:20:44.006Z,75.40
2018-05-29T13:23:11.676Z,75.00
2018-05-29T13:25:39.515Z,76.20
2018-05-29T13:28:07.974Z,70.60
2018-05-29T13:30:36.530Z,72.70
2018-05-29T13:33:04.207Z,72.80
2018-05-29T13:35:31.938Z,74.10
2018-05-29T13:37:59.717Z,71.00
2018-05-29T13:40:27.431Z,70.50
2018-05-29T13:42:55.914Z,70.10
2018-05-29T13:45:24.356Z,73.40
2018-05-29T13:47:52.071Z,73.40
2018-05-29T13:50:19.791Z,72.70
2018-05-29T13:52:47.511Z,69.30
2018-05-29T13:55:16.019Z,69.00
2018-05-29T13:57:43.694Z,69.00
2018-05-29T14:00:11.376Z,70.30
2018-05-29T14:02:39.086Z,70.00
2018-05-29T14:05:07.534Z,68.60
2018-05-29T14:07:35.362Z,68.60
2018-05-29T14:10:03.054Z,67.50
2018-05-29T14:12:30.722Z,66.70
2018-05-29T14:14:58.446Z,66.60
2018-05-29T14:17:26.127Z,67.60
2018-05-29T14:19:53.805Z,69.00
2018-05-29T14:22:21.715Z,69.00
2018-05-29T14:24:50.162Z,72.40
2018-05-29T14:27:17.855Z,72.40
2018-05-29T14:29:45.614Z,72.80
2018-05-29T14:32:14.055Z,73.20
2018-05-29T14:34:41.766Z,73.10
2018-05-29T14:37:10.242Z,73.00
2018-05-29T14:39:37.966Z,73.00
2018-05-29T14:42:06.618Z,76.90
2018-05-29T14:44:34.381Z,76.00
2018-05-29T14:47:02.248Z,75.80
2018-05-29T14:49:30.014Z,76.70
2018-05-29T14:51:57.881Z,77.30
2018-05-29T14:54:25.645Z,75.80
2018-05-29T14:56:53.513Z,74.50
2018-05-29T14:59:21.381Z,76.30
2018-05-29T15:01:49.248Z,78.10
2018-05-29T15:04:17.220Z,79.60
2018-05-29T15:06:45.802Z,80.70
2018-05-29T15:09:13.670Z,80.70
2018-05-29T15:11:41.435Z,80.60
2018-05-29T15:14:09.303Z,77.60
2018-05-29T15:16:37.172Z,76.40
2018-05-29T15:19:05.041Z,74.50
2018-05-29T15:21:32.802Z,72.10
2018-05-29T15:24:00.670Z,67.80
2018-05-29T15:26:28.436Z,66.10
2018-05-29T15:28:56.303Z,63.60
2018-05-29T15:31:24.170Z,63.90
2018-05-29T15:33:52.037Z,64.90
2018-05-29T15:36:19.905Z,64.50
2018-05-29T15:38:47.713Z,65.10
2018-05-29T15:41:15.580Z,67.60
2018-05-29T15:43:43.346Z,70.00
2018-05-29T15:46:11.213Z,71.50
2018-05-29T15:48:38.979Z,72.80
2018-05-29T15:51:06.849Z,75.40
2018-05-29T15:53:34.610Z,77.60
2018-05-29T15:56:03.259Z,77.60
2018-05-29T15:58:31.125Z,77.60
2018-05-29T16:00:58.892Z,78.10
2018-05-29T16:03:26.962Z,79.40
2018-05-29T16:05:54.739Z,81.20
2018-05-29T16:08:22.595Z,82.70
2018-05-29T16:10:50.365Z,83.90
2018-05-29T16:13:18.227Z,84.70
2018-05-29T16:15:45.992Z,85.40
2018-05-29T16:18:13.765Z,86.00
2018-05-29T16:20:41.627Z,86.50
2018-05-29T16:23:09.391Z,84.50
2018-05-29T16:25:37.258Z,82.40
2018-05-29T16:28:05.023Z,81.50
2018-05-29T16:30:32.742Z,82.00
2018-05-29T16:33:01.335Z,84.00
2018-05-29T16:35:29.030Z,84.00
2018-05-29T16:37:56.703Z,85.10
2018-05-29T16:40:24.473Z,86.00
2018-05-29T16:42:52.170Z,86.20
2018-05-29T16:45:20.610Z,86.90
2018-05-29T16:47:48.334Z,86.90
2018-05-29T16:50:16.015Z,87.20
2018-05-29T16:52:43.689Z,87.80
2018-05-29T16:55:11.408Z,87.50
2018-05-29T16:57:39.167Z,85.10
2018-05-29T17:00:06.880Z,84.70
2018-05-29T17:02:34.554Z,85.20
2018-05-29T17:05:02.277Z,85.70
2018-05-29T17:07:30.014Z,83.80
2018-05-29T17:09:57.692Z,81.20
2018-05-29T17:12:25.377Z,81.20
2018-05-29T17:14:53.100Z,81.90
2018-05-29T17:17:20.783Z,81.40
2018-05-29T17:19:48.502Z,81.70
2018-05-29T17:22:16.220Z,83.30
2018-05-29T17:24:43.991Z,83.70
2018-05-29T17:27:11.663Z,84.60
2018-05-29T17:29:40.104Z,85.00
2018-05-29T17:32:07.824Z,85.00
2018-05-29T17:34:35.507Z,83.20
2018-05-29T17:37:03.235Z,82.70
2018-05-29T17:39:30.962Z,83.00
2018-05-29T17:41:58.634Z,79.20
2018-05-29T17:44:26.344Z,75.10
2018-05-29T17:46:54.072Z,71.90
2018-05-29T17:49:21.742Z,71.90
2018-05-29T17:51:49.504Z,74.80
2018-05-29T17:54:17.177Z,77.90
2018-05-29T17:56:44.851Z,80.30
2018-05-29T17:59:12.568Z,78.50
2018-05-29T18:01:41.007Z,75.20
2018-05-29T18:04:08.724Z,75.20
2018-05-29T18:06:36.403Z,72.40
2018-05-29T18:09:04.138Z,70.70
2018-05-29T18:11:31.853Z,69.70
2018-05-29T18:13:59.604Z,71.40
2018-05-29T18:16:27.291Z,71.60
2018-05-29T18:18:54.963Z,69.70
2018-05-29T18:21:22.695Z,69.90
2018-05-29T18:23:50.407Z,70.90
2018-05-29T18:26:18.178Z,73.70
2018-05-29T18:28:45.974Z,75.00
2018-05-29T18:31:14.660Z,75.60
2018-05-29T18:33:42.433Z,75.60
2018-05-29T18:36:10.293Z,77.30
2018-05-29T18:38:37.973Z,79.60
2018-05-29T18:41:05.709Z,81.50
2018-05-29T18:43:34.159Z,84.10
2018-05-29T18:46:01.874Z,84.10
2018-05-29T18:48:30.346Z,85.80
2018-05-29T18:50:58.787Z,86.50
2018-05-29T18:53:26.687Z,87.20
2018-05-29T18:55:54.373Z,87.00
2018-05-29T18:58:22.091Z,87.40
2018-05-29T19:00:49.855Z,87.70
2018-05-29T19:03:17.602Z,88.00
2018-05-29T19:05:45.310Z,88.30
2018-05-29T19:08:13.041Z,88.50
2018-05-29T19:10:40.757Z,88.70
2018-05-29T19:13:08.431Z,88.90
2018-05-29T19:15:36.914Z,89.30
2018-05-29T19:18:05.371Z,89.50
2018-05-29T19:20:33.056Z,89.50
2018-05-29T19:23:00.898Z,90.00
2018-05-29T19:25:29.307Z,90.50
2018-05-29T19:27:56.974Z,90.50
2018-05-29T19:30:24.692Z,90.60
2018-05-29T19:32:52.371Z,90.60
2018-05-29T19:35:20.197Z,90.80
2018-05-29T19:37:47.919Z,91.30
2018-05-29T19:40:15.631Z,91.70
2018-05-29T19:42:43.403Z,91.70
2018-05-29T19:45:11.142Z,91.40
2018-05-29T19:47:38.858Z,90.90
2018-05-29T19:50:06.534Z,90.60
2018-05-29T19:52:34.287Z,90.50
2018-05-29T19:55:02.774Z,90.30
2018-05-29T19:57:30.542Z,90.30
2018-05-29T19:59:58.258Z,90.10
2018-05-29T20:02:27.339Z,89.90
2018-05-29T20:04:55.056Z,90.00
2018-05-29T20:07:22.820Z,89.50
2018-05-29T20:09:50.494Z,89.00
2018-05-29T20:12:18.244Z,88.40
2018-05-29T20:14:45.962Z,88.10
2018-05-29T20:17:13.704Z,88.70
2018-05-29T20:19:42.153Z,87.20
2018-05-29T20:22:17.316Z,87.20
2018-05-29T20:24:45.206Z,87.10
2018-05-29T20:27:13.715Z,86.20
2018-05-29T20:29:42.207Z,85.70
2018-05-29T20:32:09.922Z,85.70
2018-05-29T20:34:38.402Z,85.20
2018-05-29T20:37:06.869Z,85.30
2018-05-29T20:39:35.527Z,85.50
2018-05-29T20:42:03.227Z,85.40
2018-05-29T20:44:30.952Z,85.50
2018-05-29T20:46:58.811Z,85.40
2018-05-29T20:49:27.302Z,85.60
2018-05-29T20:51:55.755Z,85.60
2018-05-29T20:54:23.750Z,85.50
2018-05-29T20:56:52.238Z,85.50
2018-05-29T20:59:19.955Z,85.50
2018-05-29T21:01:47.691Z,85.70
2018-05-29T21:04:15.442Z,86.00
2018-05-29T21:06:43.935Z,86.00
2018-05-29T21:09:11.611Z,85.80
2018-05-29T21:11:39.542Z,85.50
2018-05-29T21:14:07.227Z,85.50
2018-05-29T21:16:34.907Z,85.60
2018-05-29T21:19:02.671Z,85.60
2018-05-29T21:21:30.347Z,85.40
2018-05-29T21:23:58.099Z,85.20
2018-05-29T21:26:26.579Z,84.60
2018-05-29T21:28:55.062Z,84.50
2018-05-29T21:31:23.550Z,84.70
2018-05-29T21:33:53.036Z,84.80
2018-05-29T21:36:21.488Z,84.80
2018-05-29T21:38:49.190Z,84.90
2018-05-29T21:41:18.875Z,85.30
2018-05-29T21:43:46.587Z,85.20
2018-05-29T21:46:14.394Z,85.40
2018-05-29T21:48:42.080Z,85.60
2018-05-29T21:51:09.931Z,85.80
2018-05-29T21:53:37.694Z,86.00
2018-05-29T21:56:05.462Z,86.20
2018-05-29T21:58:33.184Z,86.30
2018-05-29T22:01:00.876Z,86.40
2018-05-29T22:03:28.597Z,86.50
2018-05-29T22:05:56.492Z,86.50
2018-05-29T22:08:24.358Z,86.50
2018-05-29T22:10:52.191Z,86.60
2018-05-29T22:13:20.730Z,86.70
2018-05-29T22:15:48.451Z,86.70
2018-05-29T22:18:16.891Z,86.70
2018-05-29T22:20:44.615Z,86.70
2018-05-29T22:23:12.328Z,86.80
2018-05-29T22:25:40.815Z,86.40
2018-05-29T22:28:08.617Z,86.40
2018-05-29T22:30:37.152Z,86.10
2018-05-29T22:33:04.823Z,86.00
2018-05-29T22:35:33.355Z,85.90
2018-05-29T22:38:01.795Z,85.80
2018-05-29T22:40:29.491Z,85.70
2018-05-29T22:42:57.975Z,85.20
2018-05-29T22:45:26.415Z,85.00
2018-05-29T22:47:54.130Z,84.90
2018-05-29T22:50:21.803Z,84.90
2018-05-29T22:52:49.527Z,84.90
2018-05-29T22:55:17.202Z,84.90
2018-05-29T22:57:45.682Z,85.10
2018-05-29T23:00:14.151Z,85.10
2018-05-29T23:02:41.971Z,85.10
2018-05-29T23:05:09.639Z,84.60
2018-05-29T23:07:37.310Z,85.10
2018-05-29T23:10:05.041Z,85.20
2018-05-29T23:12:32.722Z,85.30
2018-05-29T23:15:01.202Z,85.60
2018-05-29T23:17:29.651Z,85.40
2018-05-29T23:19:57.326Z,85.30
2018-05-29T23:22:25.057Z,85.40
2018-05-29T23:24:52.773Z,85.50
2018-05-29T23:27:21.223Z,85.30
2018-05-29T23:29:48.941Z,85.20
2018-05-29T23:32:16.619Z,85.40
2018-05-29T23:34:44.340Z,85.60
2018-05-29T23:37:12.109Z,85.90
2018-05-29T23:39:39.836Z,85.90
2018-05-29T23:42:07.603Z,86.00
2018-05-29T23:44:35.366Z,86.00
2018-05-29T23:47:03.137Z,86.00
2018-05-29T23:49:30.852Z,85.90
2018-05-29T23:51:58.624Z,86.10
2018-05-29T23:54:26.341Z,86.00
2018-05-29T23:56:54.060Z,85.90
2018-05-29T23:59:21.829Z,85.70
